Date,TemperatureHighF,TemperatureAvgF,TemperatureLowF,DewpointHighF,DewpointAvgF,DewpointLowF,HumidityHigh,HumidityAvg,HumidityLow,PressureMaxIn,PressureMinIn,WindSpeedMaxMPH,WindSpeedAvgMPH,GustSpeedMaxMPH,PrecipitationSumIn
2013-1-1,34,24,6,24,12,-4,69,58,48,29.23,29.00,6,2,12,0.13
2013-1-2,37,20,5,15,9,-5,76,59,40,29.41,29.12,4,2,7,0.00
2013-1-3,32,24,14,22,14,6,78,65,49,29.41,29.12,4,1,6,0.00
2013-1-4,41,32,27,22,17,11,70,52,39,29.15,29.03,5,2,13,0.00
2013-1-5,41,33,26,22,19,15,67,55,42,29.47,29.15,4,1,10,0.00
2013-1-6,41,35,31,30,24,19,87,64,50,29.26,29.06,3,1,6,0.00
2013-1-7,47,32,24,31,22,14,84,66,39,29.56,29.21,4,2,8,0.00
2013-1-8,45,32,25,23,19,17,73,58,40,29.50,29.35,3,1,6,0.00
2013-1-9,57,38,26,31,23,18,77,56,36,29.47,29.15,8,2,15,0.00
2013-1-10,55,39,29,28,21,17,70,50,33,29.74,29.44,7,1,18,0.00
2013-1-11,43,38,29,34,27,21,81,67,48,29.65,29.12,5,2,8,0.00
2013-1-12,56,45,38,45,41,33,98,84,63,29.21,29.18,4,2,8,0.04
2013-1-13,58,50,41,49,45,40,100,82,65,29.21,29.00,5,2,11,0.00
2013-1-14,52,40,30,47,27,16,86,59,40,29.53,28.94,7,2,14,0.00
2013-1-15,51,33,25,24,17,14,63,51,31,29.59,29.35,4,1,7,0.00
2013-1-16,35,31,30,27,23,18,79,68,53,29.35,28.97,3,1,6,0.00
2013-1-23,24,11,1,6,-4,-13,49,47,38,29.38,29.23,4,1,10,0.04
2013-1-24,25,9,0,7,-6,-13,59,46,39,29.62,29.23,7,2,13,0.00
2013-1-25,20,12,5,6,-1,-10,65,51,43,29.62,29.21,3,1,4,0.00
2013-1-26,32,13,0,14,1,-8,73,55,42,29.53,29.21,4,0,6,0.00
2013-1-27,45,23,7,19,10,-6,73,55,33,29.68,29.50,3,1,5,0.00
2013-1-28,39,32,18,38,26,9,96,78,49,29.56,29.03,4,1,8,0.09
2013-1-29,50,42,35,50,41,34,100,97,90,29.23,29.00,2,0,4,0.29
2013-1-30,64,55,50,52,48,44,100,81,63,29.03,28.29,6,3,12,0.08
2013-1-31,52,33,21,51,22,11,99,66,40,28.85,28.23,8,3,15,0.21
2013-2-1,32,21,16,14,8,4,70,55,41,29.35,28.88,6,2,14,0.00
2013-2-2,27,19,13,13,6,1,69,54,42,29.35,29.12,5,2,11,0.00
2013-2-3,32,19,9,17,9,1,82,61,42,29.12,28.91,4,1,6,0.00
2013-2-4,28,20,16,10,8,4,64,53,42,29.12,29.00,6,2,8,0.00
2013-2-5,39,24,17,18,12,9,69,57,39,29.12,29.00,3,1,6,0.00
2013-2-6,42,25,12,21,11,-1,76,54,31,29.53,29.00,6,1,11,0.00
2013-2-7,37,24,9,14,8,-3,70,50,39,29.59,29.26,4,1,9,0.00
2013-2-8,37,31,20,30,24,13,88,77,42,29.26,28.91,5,1,9,0.00
2013-2-9,28,20,9,16,11,1,81,68,52,29.56,29.15,4,1,8,0.00
2013-2-10,51,26,9,25,11,2,81,53,34,29.56,29.18,4,1,8,0.00
2013-2-11,59,39,35,34,23,14,73,54,38,29.18,28.79,6,3,12,0.08
2013-2-12,36,34,31,21,18,15,57,52,46,29.12,28.88,6,-2,11,0.04
2013-2-13,56,33,26,26,17,14,61,50,29,29.12,28.88,4,1,6,0.00
2013-2-14,56,36,25,33,24,16,90,63,28,29.09,28.94,4,1,6,0.00
2013-2-15,46,36,27,33,20,13,89,55,38,29.21,28.94,5,2,11,0.00
2013-2-16,43,26,21,19,11,8,56,49,32,29.23,29.06,4,1,7,0.00
2013-2-17,29,19,12,11,4,-4,63,49,36,29.26,29.00,8,3,15,0.00
2013-2-18,44,24,11,14,5,-5,58,41,29,29.44,29.12,5,2,8,0.00
2013-2-19,47,35,26,32,20,10,74,54,37,29.12,28.73,6,3,10,0.00
2013-2-20,27,23,20,14,9,6,66,51,42,29.21,28.91,7,3,13,0.00
2013-2-21,28,21,17,14,9,6,66,55,43,29.56,29.12,7,3,12,0.00
2013-2-22,35,29,21,21,17,13,74,60,45,29.53,29.21,6,-2,11,0.00
2013-2-23,40,35,32,30,26,20,78,70,58,29.21,29.00,4,2,8,0.00
2013-2-24,38,32,29,26,21,16,77,62,43,29.21,29.00,5,2,10,0.00
2013-2-25,42,33,22,24,19,14,70,56,41,29.41,29.18,6,2,11,0.00
2013-2-26,48,33,19,30,20,14,83,62,37,29.41,29.06,6,1,10,0.00
2013-2-27,40,35,33,34,32,28,96,87,77,29.03,28.73,3,0,4,1.25
2013-2-28,46,37,33,40,31,26,99,82,52,28.88,28.70,4,1,8,0.37
2013-3-1,41,32,27,30,25,19,88,74,54,29.09,28.88,7,3,11,0.00
2013-3-2,32,26,24,21,18,15,77,66,49,29.12,29.00,5,2,10,0.00
2013-3-3,32,25,22,19,16,12,77,64,47,29.03,28.97,5,2,10,0.00
2013-3-4,40,28,22,18,15,12,65,54,39,29.18,29.03,6,3,12,0.00
2013-3-5,51,29,21,25,16,13,73,57,34,29.26,29.12,4,1,8,0.00
2013-3-6,45,33,20,28,23,14,80,66,49,29.29,29.06,5,2,10,0.00
2013-3-7,42,35,31,25,22,18,68,58,44,29.41,29.26,5,2,10,0.00
2013-3-8,51,33,25,25,20,13,81,59,32,29.53,29.35,6,2,12,0.00
2013-3-9,66,36,23,33,22,16,83,60,26,29.56,29.41,3,1,5,0.00
2013-3-10,63,46,28,27,22,20,78,43,25,29.41,29.18,5,2,9,0.00
2013-3-11,56,52,49,41,24,18,59,34,28,29.23,28.91,6,3,15,0.00
2013-3-12,55,44,36,44,34,24,89,69,55,29.09,28.88,6,2,11,0.00
2013-3-13,47,35,25,25,18,12,66,50,36,29.12,29.00,6,2,10,0.00
2013-3-14,43,28,20,14,9,4,62,43,26,29.21,29.06,9,0,21,0.29
2013-3-15,41,32,21,25,16,6,62,51,43,29.21,28.88,6,2,11,0.00
2013-3-16,35,28,19,18,14,10,66,52,45,29.12,28.97,4,2,8,0.00
2013-3-17,42,26,16,24,14,6,74,58,40,29.47,29.12,5,1,10,0.00
2013-3-18,35,24,14,26,14,5,86,63,35,29.47,28.97,7,2,11,0.00
2013-3-19,50,34,27,35,24,13,88,65,41,29.00,28.85,6,2,12,0.00
2013-3-20,42,29,23,20,13,7,65,49,38,29.00,28.94,5,2,8,0.00
2013-3-21,40,27,18,19,11,8,71,51,32,29.00,28.88,5,1,8,0.00
2013-3-22,37,30,24,22,18,16,74,60,45,29.06,28.88,6,2,11,0.00
2013-3-23,46,34,30,22,18,15,69,52,38,29.15,29.03,7,3,13,0.00
2013-3-24,49,34,26,24,18,14,75,51,35,29.15,28.91,4,2,8,0.00
2013-3-25,45,35,28,25,21,17,66,55,40,28.91,28.76,5,2,8,0.00
2013-3-26,58,40,30,28,22,15,67,50,31,29.12,28.88,7,2,17,0.00
2013-3-27,59,38,31,31,24,20,79,58,29,29.21,29.06,8,1,13,0.08
2013-3-28,49,39,34,33,26,22,82,62,39,29.38,29.18,6,2,10,0.00
2013-3-29,55,42,32,30,25,21,65,52,36,29.38,29.29,5,1,10,0.00
2013-3-30,68,42,27,29,22,14,82,49,22,29.38,29.23,5,1,8,0.00
2013-3-31,57,40,30,38,28,17,90,64,32,29.26,28.82,6,1,11,0.00
2013-4-1,46,37,27,40,26,11,98,68,31,29.12,28.76,8,2,14,0.00
2013-4-2,42,30,22,16,12,9,62,46,31,29.26,29.09,7,3,24,0.00
2013-4-3,41,29,26,17,14,12,63,50,34,29.38,29.23,6,3,13,0.00
2013-5-2,86,64,45,39,33,27,57,35,18,29.62,29.47,4,1,7,1.62
2013-5-3,85,70,48,42,36,30,63,30,19,29.50,29.41,4,1,7,0.00
2013-5-4,84,64,43,40,33,28,60,35,20,29.50,29.35,18,1,18,0.00
2013-5-5,89,66,49,44,35,26,65,37,16,29.41,29.29,4,1,7,0.00
2013-5-6,87,64,40,40,34,28,70,38,17,29.38,29.21,4,1,8,0.00
2013-5-7,91,68,48,51,41,34,77,42,19,29.32,29.21,3,0,6,0.00
2013-5-8,73,62,55,58,50,42,90,66,45,29.26,29.12,3,0,6,0.25
2013-5-9,75,61,50,60,53,49,97,77,46,29.15,29.06,2,0,5,0.04
2013-5-10,78,62,53,57,53,48,97,74,38,29.18,28.97,4,-4,7,0.33
2013-5-11,67,60,50,61,50,41,100,72,42,29.00,28.88,3,0,6,0.29
2013-5-12,62,50,39,43,29,21,81,48,27,29.12,28.88,6,2,13,0.00
2013-5-13,54,44,35,28,23,20,59,44,33,29.32,29.12,4,1,7,0.00
2013-5-15,86,74,57,51,42,38,56,34,23,28.97,28.73,6,2,15,0.00
2013-5-16,86,67,53,48,38,27,73,40,18,29.15,28.94,6,1,12,0.00
2013-5-17,78,58,42,41,33,27,67,41,24,29.41,29.15,3,1,8,0.00
2013-5-18,73,58,42,44,39,30,74,51,32,29.44,29.35,4,0,6,0.00
2013-5-19,78,65,58,55,51,42,74,61,42,29.38,29.23,3,1,6,0.00
2013-5-20,94,76,62,61,56,52,84,55,28,29.26,29.06,4,0,6,0.00
2013-5-21,97,78,64,67,60,55,98,59,29,29.12,28.94,4,-22,9,0.62
2013-5-22,89,75,63,76,61,51,100,65,36,29.03,28.88,5,-416,9,0.00
2013-5-23,85,68,53,62,57,51,92,69,40,29.00,28.91,3,-12,7,0.00
2013-5-24,53,45,40,50,39,33,97,81,57,29.32,29.00,5,2,8,0.00
2013-5-25,61,51,41,34,31,27,69,48,34,29.35,29.29,3,1,8,0.00
2013-5-26,68,55,45,34,29,25,57,38,24,29.38,29.23,4,1,10,0.00
2013-5-27,82,61,44,41,32,26,61,37,20,29.44,29.32,3,0,7,0.00
2013-5-28,64,56,50,60,48,32,100,74,46,29.35,29.15,2,0,8,0.00
2013-5-29,89,72,60,71,62,57,100,76,37,29.26,29.12,3,0,6,0.00
2013-5-30,95,77,62,67,59,52,98,61,27,29.32,29.23,2,0,4,0.00
2013-5-31,100,79,64,65,57,49,91,55,21,29.32,29.12,2,0,5,0.00
2013-6-1,94,77,64,63,58,55,84,55,30,29.18,29.00,3,-380,6,0.00
2013-6-2,86,72,65,67,59,49,93,66,34,29.06,28.91,2,-32,10,0.00
2013-6-3,72,60,51,53,42,34,71,53,32,29.21,29.06,2,0,6,0.76
2013-6-4,76,60,47,41,35,28,74,43,23,29.35,29.18,4,0,8,0.00
2013-6-5,85,62,47,46,38,33,73,45,22,29.41,29.23,2,0,6,0.00
2013-6-6,60,57,54,58,50,36,99,80,46,29.26,29.03,2,-104,6,0.87
2013-6-7,67,62,58,65,60,58,100,93,80,29.06,28.97,2,0,3,0.00
2013-6-8,68,62,58,60,55,51,98,79,57,29.26,28.97,3,0,4,0.00
2013-6-9,85,65,56,56,51,46,91,65,32,29.41,29.26,1,0,4,0.00
2013-6-10,68,62,58,65,57,50,99,84,71,29.32,28.94,1,0,4,0.29
2013-6-11,69,65,62,66,62,53,100,88,69,29.03,28.82,4,0,7,0.33
2013-6-12,85,67,54,57,51,46,96,61,29,29.12,29.00,2,0,5,0.00
2013-6-13,65,62,58,62,57,54,99,84,71,29.00,28.67,2,0,8,0.42
2013-6-14,71,67,63,53,50,47,67,54,43,29.15,29.12,2,0,4,0.00
2013-6-15,82,68,55,55,45,34,86,50,22,29.23,29.12,2,0,6,0.00
2013-6-16,75,67,59,61,54,48,74,64,47,29.15,28.88,3,0,7,0.00
2013-6-17,87,71,59,63,56,43,94,65,26,29.12,29.00,3,0,8,0.21
2013-6-18,70,62,57,61,51,38,98,71,34,29.21,29.06,3,0,6,0.00
2013-6-19,79,61,48,46,40,35,86,50,24,29.38,29.18,2,0,6,0.00
2013-6-20,90,65,49,52,44,39,83,51,27,29.47,29.35,1,0,4,0.00
2013-6-21,93,72,54,55,49,42,74,48,24,29.47,29.35,2,0,4,0.00
2013-6-22,94,77,65,61,58,53,82,55,28,29.38,29.23,2,0,4,0.00
2013-6-23,98,79,71,68,63,55,89,61,31,29.29,29.21,4,0,6,0.04
2013-6-24,98,81,70,69,62,53,89,58,28,29.29,29.15,2,0,5,0.00
2013-6-25,88,77,69,67,61,54,90,60,41,29.18,29.00,2,0,6,0.00
2013-6-26,86,76,70,65,61,55,80,60,37,29.06,29.00,1,0,4,0.00
2013-6-27,86,74,66,69,65,59,96,75,42,29.03,28.82,2,0,4,0.00
2013-6-28,74,68,64,68,64,61,97,87,70,28.82,28.67,2,0,3,0.16
2013-6-29,79,68,63,68,64,59,99,88,54,28.91,28.70,2,0,3,0.42
2013-6-30,86,72,62,69,63,58,100,77,42,29.12,28.88,2,-5,6,0.00
2013-7-1,70,67,64,67,64,59,100,89,75,29.21,29.09,0,0,2,0.25
2013-7-2,89,71,62,73,66,62,100,85,46,29.29,29.18,1,0,3,0.00
2013-7-3,95,78,67,72,66,62,98,70,36,29.35,29.26,2,0,4,0.00
2013-7-4,92,79,73,72,68,63,84,69,42,29.38,29.29,0,0,0,0.00
2013-7-5,95,80,70,72,66,60,97,66,35,29.35,29.23,2,0,3,0.00
2013-7-6,98,80,70,71,64,56,96,64,28,29.35,29.23,0,0,1,0.00
2013-7-7,96,80,72,74,66,59,94,64,33,29.26,29.12,0,0,0,0.04
2013-7-8,94,77,70,68,63,59,90,65,34,29.29,29.18,0,0,0,0.08
2013-7-9,88,76,70,70,68,62,93,77,45,29.29,29.12,1,-4,4,0.00
2013-7-10,90,78,68,72,68,64,91,75,44,29.15,28.94,2,0,6,0.25
2013-7-11,84,73,64,65,56,51,89,60,35,29.21,29.00,3,0,6,0.00
2013-7-12,82,70,61,64,57,50,93,66,41,29.38,29.21,2,0,4,0.00
2013-7-13,81,73,64,66,62,54,87,68,52,29.47,29.35,3,0,5,0.00
2013-7-14,98,81,67,71,66,62,98,66,32,29.50,29.41,2,0,4,0.00
2013-7-15,100,81,71,73,67,61,90,66,30,29.50,29.41,2,-4,4,0.00
2013-7-16,101,82,69,69,63,56,91,58,26,29.50,29.41,3,-4,5,0.00
2013-7-17,103,84,70,70,65,59,88,58,25,29.44,29.26,2,-4,4,0.00
2013-7-18,102,83,75,74,68,59,87,65,27,29.32,29.15,3,0,5,0.00
2013-7-19,102,85,71,72,65,56,88,56,26,29.18,28.97,4,0,6,0.08
2013-7-20,81,73,66,68,64,58,94,75,55,29.09,28.88,4,0,6,0.13
2013-7-21,93,74,64,65,58,51,96,61,28,29.23,29.06,2,0,4,0.00
2013-7-22,89,74,61,69,60,55,92,65,36,29.21,29.00,0,0,0,0.12
2013-7-23,92,76,68,71,63,55,99,69,35,29.00,28.82,0,0,0,0.33
2013-7-24,73,65,53,60,48,41,76,54,36,29.23,28.88,2,0,4,0.00
2013-7-25,88,64,48,56,47,42,94,59,23,29.32,29.21,1,0,3,0.00
2013-7-26,94,69,53,59,49,43,92,55,21,29.32,29.18,0,0,2,0.00
2013-7-27,86,70,58,67,58,52,91,69,37,29.21,29.06,1,0,4,0.17
2013-7-28,84,70,62,70,64,56,99,84,43,29.21,29.03,0,0,1,0.58
2013-7-29,79,65,58,66,55,48,100,74,37,29.35,29.18,0,0,1,0.00
2013-7-30,86,68,56,59,52,47,93,61,29,29.41,29.32,2,0,4,0.00
2013-7-31,89,71,59,61,54,48,94,60,29,29.38,29.15,0,0,1,0.00
2013-8-1,83,70,64,67,59,53,87,69,44,29.18,29.00,3,-174,6,0.00
2013-8-2,72,66,60,61,58,54,92,76,61,29.09,29.03,3,-239,4,0.21
2013-8-3,90,72,62,59,50,39,82,49,21,29.12,29.00,3,-227,4,0.00
2013-8-4,81,67,59,54,47,41,71,50,31,29.23,29.12,1,-847,1,0.00
2013-8-5,88,67,56,55,46,40,82,51,23,29.32,29.21,0,-999,0,0.00
2013-8-6,90,69,54,57,50,43,88,56,23,29.26,29.18,0,-364,1,0.00
2013-8-7,80,72,66,63,58,53,77,63,50,29.23,29.12,0,0,3,0.00
2013-8-8,91,73,66,71,66,58,100,79,41,29.92,29.09,10,0,18,0.83
2013-8-9,78,72,64,73,68,59,100,89,65,29.15,29.03,0,0,0,0.12
2013-8-10,86,69,58,62,51,41,97,59,23,29.29,29.12,1,0,5,0.00
2013-8-11,86,66,57,58,51,44,91,62,30,29.32,29.23,0,-6,1,0.00
2013-8-12,89,71,60,59,55,50,83,61,32,29.26,29.06,0,0,1,0.00
2013-8-13,89,68,58,70,57,42,100,71,38,29.12,28.94,1,0,6,0.87
2013-8-14,76,62,53,53,44,39,83,53,33,29.26,29.00,2,0,7,0.00
2013-8-15,85,64,51,51,46,41,86,56,27,29.35,29.26,0,-7,2,0.00
2013-8-16,85,71,58,56,47,41,73,44,25,29.41,29.29,0,0,0,0.00
2013-8-17,90,69,56,58,51,44,91,58,28,29.50,29.41,0,0,1,0.00
2013-8-18,83,68,60,58,55,49,83,65,33,29.47,29.29,0,-10,2,0.00
2013-8-19,90,73,62,61,55,48,83,57,30,29.32,29.23,0,0,1,0.00
2013-8-20,96,74,61,61,55,47,90,57,22,29.35,29.23,0,0,2,0.00
2013-8-21,97,76,63,62,57,50,90,58,23,29.38,29.23,0,0,3,0.00
2013-8-22,95,75,66,66,61,54,91,66,30,29.26,29.09,1,0,3,0.13
2013-8-23,88,69,57,64,53,45,96,62,28,29.41,29.18,1,0,5,0.00
2013-8-24,92,66,53,60,48,42,93,59,21,29.56,29.38,0,0,2,0.00
2013-8-25,95,71,54,58,51,44,92,55,20,29.56,29.35,0,0,3,0.00
2013-8-26,88,72,67,70,62,54,100,75,40,29.38,29.12,0,0,1,0.62
2013-8-27,95,76,67,74,68,64,100,79,40,29.15,29.06,0,0,0,0.04
2013-8-28,90,75,68,73,69,65,98,83,45,29.15,29.06,0,0,0,0.08
2013-8-29,94,74,65,72,64,58,99,75,37,29.26,29.12,0,0,0,0.00
2013-8-30,95,76,64,68,62,53,97,66,27,29.21,29.00,0,0,0,0.00
2013-8-31,94,77,70,70,66,60,91,70,39,29.09,28.94,1,0,3,0.00
2013-9-1,88,76,69,70,65,60,93,72,43,29.06,28.94,0,0,2,0.09
2013-9-2,95,74,67,78,68,61,100,85,38,29.00,28.88,0,0,0,1.20
2013-9-7,70,67,64,55,49,45,71,53,42,29.21,29.06,0,0,3,0.00
2013-9-8,75,62,48,63,49,36,93,66,31,29.35,29.00,2,0,5,0.00
2013-9-9,86,63,48,54,46,39,93,58,27,29.35,29.18,1,0,4,0.00
2013-9-10,98,77,66,70,62,54,91,62,33,29.23,29.15,1,0,3,0.00
2013-9-11,103,80,70,72,68,57,96,70,26,29.29,29.12,4,-5,6,0.25
2013-9-12,80,69,61,74,66,59,96,88,61,29.12,28.91,0,0,6,0.59
2013-9-13,67,58,51,59,52,46,91,80,53,29.15,28.91,2,-5,6,0.00
2013-9-14,61,53,44,49,42,37,92,69,44,29.35,29.12,1,0,3,0.03
2013-9-15,73,57,44,49,44,39,88,65,34,29.32,29.23,2,0,6,0.00
2013-9-16,61,53,44,54,47,39,90,79,65,29.50,29.23,1,0,3,0.00
2013-9-17,78,53,37,48,39,33,99,66,24,29.62,29.47,1,0,3,0.00
2013-9-18,85,58,45,46,41,34,89,61,20,29.47,29.29,0,-17,3,0.00
2013-9-19,91,66,53,50,44,38,73,50,20,29.35,29.21,0,-5,3,0.00
2013-9-20,89,70,57,58,53,47,92,59,29,29.23,29.00,2,0,6,0.00
2013-9-21,72,65,55,59,56,53,97,75,57,29.03,28.85,3,0,7,0.54
2013-9-22,59,53,49,52,42,34,91,67,44,29.21,28.88,4,-5,8,0.00
2013-9-23,63,52,41,41,37,32,78,59,37,29.32,29.21,2,-5,5,0.00
2013-9-24,78,54,41,48,39,32,94,64,25,29.32,29.18,2,0,5,0.00
2013-9-25,86,58,45,53,42,38,92,61,22,29.21,29.12,0,0,2,0.00
2013-9-26,90,60,45,54,44,39,92,61,23,29.35,29.18,1,0,2,0.00
2013-9-27,85,60,46,56,46,42,93,66,28,29.47,29.32,0,0,2,0.00
2013-9-28,85,60,50,54,47,42,94,68,30,29.53,29.38,1,0,3,0.00
2013-9-29,85,60,45,54,43,39,96,60,25,29.38,29.23,1,-5,9,0.00
2013-9-30,84,65,54,54,48,45,74,57,30,29.23,29.12,0,0,2,0.00
2013-10-1,88,67,58,59,51,44,91,61,29,29.23,29.12,1,0,3,0.00
2013-10-2,87,65,54,62,52,43,93,66,32,29.26,29.15,2,0,6,0.00
2013-10-3,92,63,50,55,46,36,93,60,19,29.32,29.21,0,-5,1,0.00
2013-10-4,87,68,60,69,60,47,96,76,41,29.29,29.18,0,0,0,0.13
2013-10-5,69,64,61,65,60,57,97,86,72,29.29,29.23,0,0,1,0.04
2013-10-6,85,69,61,77,63,59,100,85,50,29.23,29.00,0,0,3,0.54
2013-10-7,74,63,51,62,53,37,100,71,48,29.21,28.85,4,0,10,0.66
2013-10-8,81,55,44,49,40,33,93,61,23,29.56,29.21,1,-10,4,0.00
2013-10-9,82,55,42,51,40,33,94,65,21,29.59,29.47,1,0,4,0.00
2013-10-10,81,56,45,48,40,32,91,63,22,29.50,29.35,1,-5,2,0.00
2013-10-11,69,56,46,52,44,37,89,68,33,29.35,29.29,0,-5,1,0.00
2013-10-12,90,55,42,54,40,29,97,65,15,29.41,29.29,1,-5,3,0.00
2013-10-13,77,62,50,52,47,41,83,59,36,29.50,29.41,0,-9,3,0.00
2013-10-14,62,58,56,58,54,47,100,87,59,29.50,29.47,0,0,1,0.17
2013-10-15,72,60,54,57,52,49,100,79,49,29.47,29.18,1,-9,2,0.00
2013-10-16,64,60,54,55,48,40,91,66,48,29.21,29.00,1,-5,6,0.08
2013-10-17,80,59,45,54,47,40,99,69,27,29.09,28.85,2,0,3,0.54
2013-10-18,66,53,43,52,41,32,94,67,33,29.12,28.91,2,0,6,0.04
2013-10-19,64,53,45,44,39,35,80,59,36,29.12,28.82,1,-9,4,0.00
2013-10-20,58,47,41,41,35,33,83,65,44,29.18,28.94,0,-4,2,0.00
2013-10-21,77,56,42,42,34,27,84,48,22,29.21,29.00,1,0,3,0.00
2013-10-22,62,50,38,44,31,21,79,52,27,29.03,28.94,4,-5,7,0.00
2013-10-23,59,42,33,36,30,26,80,64,35,29.03,28.85,1,0,3,0.00
2013-10-24,60,41,29,34,28,21,89,63,30,29.15,28.94,1,-10,6,0.04
2013-10-25,58,42,35,34,30,26,79,62,37,29.35,29.18,1,-4,4,0.05
2013-10-26,48,44,41,32,25,21,71,47,37,29.32,28.97,1,-5,5,0.00
2013-10-27,51,44,37,32,26,22,71,50,39,29.26,29.00,0,-4,2,0.00
2013-10-28,55,43,33,33,26,21,73,53,38,29.56,29.23,1,-9,3,0.00
2013-10-29,63,40,25,31,23,19,79,53,26,29.65,29.47,0,0,1,0.00
2013-10-30,75,49,36,40,32,25,83,55,24,29.47,29.32,0,0,2,0.00
2013-10-31,62,54,36,58,50,28,99,86,72,29.32,28.67,1,0,5,0.25
2013-11-1,76,61,52,59,46,30,99,64,23,28.88,28.47,4,1,12,0.29
2013-11-2,59,48,38,46,39,34,92,73,45,29.12,28.82,5,-4,6,0.12
2013-11-3,46,35,27,36,23,13,92,63,35,29.68,29.12,5,-3,11,0.04
2013-11-4,57,35,21,32,18,14,84,53,25,29.83,29.65,1,-5,3,0.00
2013-11-5,58,46,37,30,21,14,50,38,28,29.68,29.50,1,0,3,0.00
2013-11-6,66,55,47,46,38,30,68,53,38,29.53,29.03,1,-9,5,0.00
2013-11-7,56,45,35,51,34,24,89,66,49,29.18,28.97,2,-5,6,0.21
2013-11-8,48,38,32,27,22,17,71,51,38,29.38,29.12,1,0,6,0.00
2013-11-9,48,42,36,26,22,20,58,45,38,29.38,29.00,0,0,2,0.00
2013-11-10,52,46,40,35,26,21,62,46,38,29.29,28.94,6,1,11,0.00
2013-11-11,47,39,30,31,24,18,78,55,38,29.35,29.12,6,1,13,0.00
2013-11-12,40,29,24,24,16,12,74,55,37,29.53,29.23,7,-2,13,0.00
2013-11-13,50,31,15,21,14,9,76,52,31,29.59,29.26,4,-19,8,0.00
2013-11-14,61,42,31,24,14,9,41,32,23,29.29,29.18,3,-4,7,0.00
2013-11-15,62,43,30,26,17,9,50,36,24,29.35,29.23,0,-5,2,0.00
2013-11-16,72,48,30,33,26,18,68,43,24,29.44,29.26,0,0,2,0.00
2013-11-17,59,54,44,53,45,30,89,73,51,29.26,28.64,5,-14,10,0.04
2013-11-18,64,49,37,55,31,17,93,51,27,29.09,28.61,5,2,12,0.12
2013-11-19,44,35,28,24,18,12,62,48,38,29.59,29.06,6,2,10,0.00
2013-11-20,55,30,19,26,16,12,72,56,28,29.77,29.59,3,-6,5,0.00
2013-11-21,46,37,28,34,19,10,80,48,37,29.68,29.44,5,-8,10,0.00
2013-11-22,50,42,35,45,37,22,92,82,58,29.44,29.15,9,-4,14,0.17
2013-11-23,44,31,17,22,17,4,66,54,38,29.32,29.12,7,3,15,0.00
2013-11-24,34,19,15,11,6,3,71,55,34,29.53,29.26,7,-2,17,0.00
2013-11-25,39,27,15,15,8,4,63,45,31,29.53,29.29,4,-3,8,0.00
2013-11-26,36,34,32,30,22,8,89,62,35,29.35,28.97,3,1,7,0.29
2013-11-27,35,32,23,34,29,15,100,88,64,29.03,28.76,7,-21,11,0.58
2013-11-28,40,25,18,17,12,8,73,56,39,29.56,29.03,0,-22,0,0.00
2013-11-29,42,22,10,20,12,0,81,64,36,29.85,29.53,4,-10,6,0.00
2013-11-30,36,24,10,17,12,0,80,57,39,29.88,29.38,6,-4,10,0.00
2013-12-1,40,34,30,31,22,16,86,61,46,29.38,29.12,4,-4,10,0.08
2013-12-2,42,37,35,32,30,28,86,75,61,29.15,29.00,3,-10,5,0.09
2013-12-3,56,34,26,31,24,18,87,68,35,29.18,29.06,3,-343,4,0.00
2013-12-4,60,39,29,43,30,23,96,72,37,29.21,29.12,4,-4,6,0.00
2013-12-5,58,51,43,48,43,31,86,73,49,29.18,28.97,6,-13,10,0.04
2013-12-6,43,35,30,38,29,22,93,77,63,29.41,29.12,4,-14,7,0.37
2013-12-7,41,29,20,25,14,6,77,53,34,29.68,29.38,6,2,9,0.00
2013-12-8,32,24,18,20,10,5,77,51,41,29.74,29.38,5,1,8,0.00
2013-12-9,41,35,26,31,23,15,81,63,46,29.41,29.00,4,2,10,0.00
2013-12-10,34,28,20,16,13,8,65,50,44,29.21,29.06,7,-20,10,0.00
2013-12-11,36,24,12,20,13,0,74,61,43,29.41,29.21,5,-28,8,0.00
2013-12-12,32,17,7,11,2,-4,55,48,35,29.47,29.18,4,1,8,0.00
2013-12-13,29,21,15,16,10,5,69,59,46,29.50,29.12,5,-12,8,0.00
2013-12-14,24,18,10,20,11,1,83,69,61,29.56,28.94,3,-18,6,0.00
2013-12-15,36,27,21,25,19,7,87,70,43,29.00,28.73,4,-14,7,0.00
2013-12-16,39,18,3,16,4,-9,69,52,35,29.32,29.00,5,1,17,0.00
2013-12-17,31,18,3,20,9,-9,80,65,52,29.32,29.06,3,-4,7,0.00
2013-12-18,37,28,23,24,20,16,79,68,48,29.23,29.09,3,-28,5,0.00
2013-12-19,52,36,27,27,20,14,73,53,36,29.21,29.06,3,-15,6,0.04
2013-12-20,46,42,34,44,33,27,93,72,49,29.15,28.97,3,1,6,0.04
2013-12-21,55,47,34,52,45,33,98,92,82,29.06,28.94,4,-4,6,0.67
2013-12-22,61,40,33,57,38,33,100,94,63,29.15,28.76,3,-4,8,0.12
2013-12-23,42,38,28,41,31,15,99,78,51,29.41,29.12,0,0,2,0.00
2013-12-24,30,22,13,23,13,3,75,64,52,29.59,29.32,1,0,5,0.00
2013-12-25,24,16,6,9,4,-3,71,55,43,29.68,29.35,1,0,5,0.00
2013-12-26,40,29,24,20,16,8,63,53,43,29.41,29.21,3,0,9,0.00
2013-12-27,36,30,23,23,17,11,73,58,52,29.44,29.29,0,0,3,0.00
2013-12-28,58,39,29,31,23,19,75,54,33,29.29,29.12,1,0,5,0.00
2013-12-29,44,38,30,35,29,22,93,71,42,29.12,28.82,1,0,6,0.25
2013-12-30,37,22,13,32,14,4,86,67,54,29.35,28.88,6,-5,12,0.00
2013-12-31,31,20,15,15,7,2,66,55,40,29.41,29.12,0,0,0,0.00
2014-1-1,27,19,13,9,6,0,68,52,41,29.56,29.35,0,0,0,0.00
2014-1-2,16,12,6,8,4,-3,70,67,61,29.44,29.06,0,-5,0,0.00